createdAt,value
2018-07-16T00:00:41.065Z,19.80
2018-07-16T00:03:09.410Z,19.80
2018-07-16T00:05:37.821Z,19.80
2018-07-16T00:08:06.515Z,19.80
2018-07-16T00:10:34.931Z,19.90
2018-07-16T00:13:03.300Z,19.90
2018-07-16T00:15:31.922Z,19.80
2018-07-16T00:18:00.300Z,19.80
2018-07-16T00:20:28.670Z,19.80
2018-07-16T00:22:57.049Z,19.70
2018-07-16T00:25:25.404Z,19.70
2018-07-16T00:27:53.921Z,19.70
2018-07-16T00:30:22.309Z,19.70
2018-07-16T00:32:50.719Z,19.70
2018-07-16T00:35:19.091Z,19.70
2018-07-16T00:37:47.459Z,19.60
2018-07-16T00:40:15.795Z,19.60
2018-07-16T00:42:44.175Z,19.60
2018-07-16T00:45:12.529Z,19.60
2018-07-16T00:47:40.906Z,19.50
2018-07-16T00:50:09.262Z,19.40
2018-07-16T00:52:37.635Z,19.40
2018-07-16T00:55:06.072Z,19.30
2018-07-16T00:57:34.520Z,19.30
2018-07-16T01:00:02.841Z,19.30
2018-07-16T01:02:31.215Z,19.20
2018-07-16T01:04:59.674Z,19.20
2018-07-16T01:07:28.025Z,19.20
2018-07-16T01:09:56.399Z,19.10
2018-07-16T01:12:24.826Z,19.10
2018-07-16T01:14:53.168Z,19.10
2018-07-16T01:17:21.577Z,19.10
2018-07-16T01:19:50.501Z,19.10
2018-07-16T01:22:19.027Z,18.90
2018-07-16T01:24:47.425Z,18.80
2018-07-16T01:27:15.858Z,18.60
2018-07-16T01:29:44.232Z,18.40
2018-07-16T01:32:12.614Z,18.10
2018-07-16T01:34:41.027Z,17.90
2018-07-16T01:37:09.444Z,17.80
2018-07-16T01:39:37.819Z,17.70
2018-07-16T01:42:07.248Z,17.60
2018-07-16T01:44:35.689Z,17.60
2018-07-16T01:47:04.129Z,17.60
2018-07-16T01:49:32.548Z,17.60
2018-07-16T01:52:00.954Z,17.60
2018-07-16T01:54:29.348Z,17.50
2018-07-16T01:56:57.735Z,17.50
2018-07-16T01:59:26.206Z,17.40
2018-07-16T02:01:54.597Z,17.40
2018-07-16T02:04:23.033Z,17.30
2018-07-16T02:06:51.412Z,17.40
2018-07-16T02:09:19.864Z,17.40
2018-07-16T02:11:48.298Z,17.40
2018-07-16T02:14:16.697Z,17.40
2018-07-16T02:16:45.128Z,17.30
2018-07-16T02:19:13.575Z,17.30
2018-07-16T02:21:41.994Z,17.30
2018-07-16T02:26:38.495Z,17.30
2018-07-16T02:29:06.882Z,17.40
2018-07-16T02:31:35.261Z,17.40
2018-07-16T02:34:03.787Z,17.40
2018-07-16T02:36:32.193Z,17.50
2018-07-16T02:39:00.575Z,17.50
2018-07-16T02:41:28.949Z,17.50
2018-07-16T02:48:53.826Z,17.50
2018-07-16T02:51:22.221Z,17.50
2018-07-16T02:53:50.652Z,17.50
2018-07-16T02:56:19.085Z,17.50
2018-07-16T02:58:47.469Z,17.50
2018-07-16T03:01:15.869Z,17.60
2018-07-16T03:03:44.313Z,17.60
2018-07-16T03:06:12.730Z,17.50
2018-07-16T03:08:41.161Z,17.50
2018-07-16T03:11:09.577Z,17.40
2018-07-16T03:13:38.024Z,17.40
2018-07-16T03:16:06.399Z,17.40
2018-07-16T03:18:34.858Z,17.30
2018-07-16T03:21:03.241Z,17.30
2018-07-16T03:23:31.646Z,17.40
2018-07-16T03:26:00.031Z,17.40
2018-07-16T03:28:28.494Z,17.50
2018-07-16T03:30:56.938Z,17.50
2018-07-16T03:33:25.478Z,17.40
2018-07-16T03:35:53.936Z,17.40
2018-07-16T03:38:22.341Z,17.40
2018-07-16T03:40:50.727Z,17.40
2018-07-16T03:43:21.999Z,17.40
2018-07-16T03:45:50.448Z,17.40
2018-07-16T03:48:18.835Z,17.40
2018-07-16T03:50:47.313Z,17.40
2018-07-16T03:53:15.703Z,17.40
2018-07-16T03:55:44.329Z,17.40
2018-07-16T03:58:12.663Z,17.40
2018-07-16T04:00:41.095Z,17.40
2018-07-16T04:03:09.478Z,17.40
2018-07-16T04:05:37.873Z,17.40
2018-07-16T04:08:06.424Z,17.40
2018-07-16T04:10:34.899Z,17.40
2018-07-16T04:13:03.303Z,17.40
2018-07-16T04:15:31.715Z,17.40
2018-07-16T04:18:00.150Z,17.50
2018-07-16T04:20:28.572Z,17.50
2018-07-16T04:22:56.994Z,17.50
2018-07-16T04:25:25.431Z,17.50
2018-07-16T04:27:53.933Z,17.60
2018-07-16T04:30:22.336Z,17.60
2018-07-16T04:32:50.711Z,17.70
2018-07-16T04:35:19.248Z,17.70
2018-07-16T04:37:47.659Z,17.80
2018-07-16T04:40:16.104Z,17.80
2018-07-16T04:42:44.524Z,17.80
2018-07-16T04:45:12.915Z,17.90
2018-07-16T04:47:41.319Z,17.90
2018-07-16T04:50:09.749Z,18.00
2018-07-16T04:52:38.189Z,18.10
2018-07-16T04:55:07.213Z,18.20
2018-07-16T04:57:35.594Z,18.30
2018-07-16T05:00:04.426Z,18.40
2018-07-16T05:02:32.824Z,18.50
2018-07-16T05:05:01.255Z,18.60
2018-07-16T05:07:29.685Z,18.70
2018-07-16T05:09:58.109Z,18.80
2018-07-16T05:12:26.530Z,18.80
2018-07-16T05:14:54.961Z,18.90
2018-07-16T05:17:23.362Z,19.20
2018-07-16T05:19:58.119Z,19.50
2018-07-16T05:22:26.491Z,19.80
2018-07-16T05:24:54.886Z,20.20
2018-07-16T05:27:23.779Z,20.30
2018-07-16T05:29:52.262Z,20.50
2018-07-16T05:34:48.827Z,20.60
2018-07-16T05:37:17.654Z,20.50
2018-07-16T05:39:46.053Z,20.50
2018-07-16T05:42:14.550Z,20.50
2018-07-16T05:44:42.968Z,20.40
2018-07-16T05:47:11.657Z,20.30
2018-07-16T05:49:40.074Z,20.30
2018-07-16T05:52:08.505Z,20.20
2018-07-16T05:54:36.922Z,20.20
2018-07-16T05:57:05.391Z,20.20
2018-07-16T05:59:33.813Z,20.30
2018-07-16T06:02:02.318Z,20.40
2018-07-16T06:04:30.811Z,20.60
2018-07-16T06:06:59.330Z,20.70
2018-07-16T06:09:27.732Z,20.90
2018-07-16T06:11:56.243Z,21.10
2018-07-16T06:14:24.729Z,21.20
2018-07-16T06:16:53.206Z,21.20
2018-07-16T06:19:21.664Z,21.30
2018-07-16T06:21:50.413Z,21.30
2018-07-16T06:24:18.811Z,21.50
2018-07-16T06:26:47.215Z,21.60
2018-07-16T06:29:15.654Z,21.60
2018-07-16T06:31:44.496Z,21.60
2018-07-16T06:34:12.960Z,21.80
2018-07-16T06:36:41.425Z,21.90
2018-07-16T06:39:09.834Z,21.90
2018-07-16T06:41:38.282Z,22.00
2018-07-16T06:44:06.887Z,22.20
2018-07-16T06:46:35.339Z,22.30
2018-07-16T06:49:03.774Z,22.20
2018-07-16T06:51:32.217Z,22.20
2018-07-16T06:54:00.862Z,22.30
2018-07-16T06:56:29.297Z,22.40
2018-07-16T06:58:57.677Z,22.50
2018-07-16T07:01:26.108Z,22.70
2018-07-16T07:03:54.486Z,22.80
2018-07-16T07:06:23.045Z,22.70
2018-07-16T07:08:51.535Z,22.60
2018-07-16T07:11:19.978Z,22.80
2018-07-16T07:13:48.435Z,22.90
2018-07-16T07:16:16.891Z,23.10
2018-07-16T07:18:45.302Z,23.20
2018-07-16T07:21:13.871Z,23.40
2018-07-16T07:23:42.301Z,23.50
2018-07-16T07:26:10.734Z,23.60
2018-07-16T07:28:39.331Z,23.70
2018-07-16T07:31:07.950Z,23.90
2018-07-16T07:33:36.396Z,23.70
2018-07-16T07:36:04.907Z,23.90
2018-07-16T07:38:33.453Z,24.00
2018-07-16T07:41:01.853Z,24.00
2018-07-16T07:43:30.647Z,24.10
2018-07-16T07:45:59.103Z,24.20
2018-07-16T07:49:52.016Z,24.40
2018-07-16T07:52:20.641Z,24.40
2018-07-16T07:54:49.317Z,24.50
2018-07-16T07:57:17.970Z,24.60
2018-07-16T07:59:46.407Z,24.70
2018-07-16T08:02:15.012Z,24.80
2018-07-16T08:04:43.431Z,24.90
2018-07-16T08:07:13.613Z,25.00
2018-07-16T08:12:16.797Z,25.00
2018-07-16T08:14:45.207Z,25.10
2018-07-16T08:17:13.680Z,25.00
2018-07-16T08:19:42.257Z,25.00
2018-07-16T08:22:10.693Z,25.00
2018-07-16T08:24:39.320Z,25.00
2018-07-16T08:27:07.838Z,25.10
2018-07-16T08:29:36.304Z,25.10
2018-07-16T08:32:04.798Z,25.20
2018-07-16T08:34:33.284Z,25.30
2018-07-16T08:37:02.094Z,25.40
2018-07-16T08:39:30.546Z,25.40
2018-07-16T08:41:58.941Z,25.40
2018-07-16T08:44:27.910Z,25.20
2018-07-16T08:46:56.535Z,25.00
2018-07-16T08:49:24.996Z,25.20
2018-07-16T08:51:53.505Z,25.20
2018-07-16T08:54:21.996Z,25.40
2018-07-16T08:56:50.429Z,25.50
2018-07-16T08:59:18.979Z,25.70
2018-07-16T09:01:47.329Z,25.60
2018-07-16T09:06:43.975Z,25.70
2018-07-16T09:09:12.427Z,25.80
2018-07-16T09:11:40.869Z,25.90
2018-07-16T09:14:09.367Z,26.10
2018-07-16T09:16:37.858Z,26.20
2018-07-16T09:19:06.464Z,26.30
2018-07-16T09:21:35.658Z,26.40
2018-07-16T09:24:04.251Z,26.50
2018-07-16T09:26:32.801Z,26.50
2018-07-16T09:29:01.241Z,26.70
2018-07-16T09:31:29.627Z,26.80
2018-07-16T09:33:58.029Z,26.90
2018-07-16T09:36:26.570Z,27.00
2018-07-16T09:38:54.989Z,27.00
2018-07-16T09:41:23.363Z,27.10
2018-07-16T09:43:51.892Z,27.20
2018-07-16T09:46:20.510Z,27.40
2018-07-16T09:48:48.974Z,27.50
2018-07-16T09:51:17.569Z,27.60
2018-07-16T09:53:46.083Z,27.60
2018-07-16T09:56:14.711Z,27.80
2018-07-16T09:58:43.197Z,27.90
2018-07-16T10:01:17.158Z,28.00
2018-07-16T10:03:45.589Z,28.20
2018-07-16T10:06:14.003Z,28.30
2018-07-16T10:08:42.458Z,28.50
2018-07-16T10:11:10.852Z,28.60
2018-07-16T10:13:39.269Z,28.70
2018-07-16T10:16:07.695Z,28.90
2018-07-16T10:18:36.210Z,28.90
2018-07-16T10:21:04.652Z,29.10
2018-07-16T10:23:33.072Z,29.30
2018-07-16T10:26:01.536Z,29.50
2018-07-16T10:28:29.995Z,29.80
2018-07-16T10:30:58.417Z,29.80
2018-07-16T10:33:26.852Z,29.90
2018-07-16T10:38:23.419Z,30.40
2018-07-16T10:40:51.858Z,30.30
2018-07-16T10:43:20.290Z,30.30
2018-07-16T10:45:48.895Z,30.50
2018-07-16T10:50:45.443Z,31.00
2018-07-16T10:53:13.852Z,31.30
2018-07-16T10:55:42.389Z,31.60
2018-07-16T10:58:10.775Z,31.70
2018-07-16T11:00:39.233Z,32.10
2018-07-16T11:03:07.736Z,32.60
2018-07-16T11:05:36.262Z,32.70
2018-07-16T11:08:04.799Z,32.70
2018-07-16T11:10:33.261Z,32.30
2018-07-16T11:13:01.706Z,32.70
2018-07-16T11:15:30.323Z,32.80
2018-07-16T11:17:58.870Z,33.10
2018-07-16T11:20:27.375Z,33.40
2018-07-16T11:22:55.807Z,33.60
2018-07-16T11:25:24.318Z,34.00
2018-07-16T11:27:52.706Z,34.20
2018-07-16T11:30:21.152Z,34.10
2018-07-16T11:32:49.595Z,33.40
2018-07-16T11:35:18.060Z,33.30
2018-07-16T11:37:46.500Z,33.30
2018-07-16T11:40:14.921Z,33.70
2018-07-16T11:42:43.375Z,33.50
2018-07-16T11:45:11.845Z,33.40
2018-07-16T11:47:40.257Z,33.60
2018-07-16T11:50:08.695Z,33.30
2018-07-16T11:52:37.147Z,33.30
2018-07-16T11:55:05.662Z,33.30
2018-07-16T11:57:34.039Z,34.00
2018-07-16T12:00:02.645Z,33.90
2018-07-16T12:02:31.060Z,34.30
2018-07-16T12:04:59.442Z,34.90
2018-07-16T12:07:27.879Z,34.80
2018-07-16T12:09:56.297Z,34.50
2018-07-16T12:12:24.927Z,34.80
2018-07-16T12:14:53.297Z,35.10
2018-07-16T12:17:21.748Z,35.10
2018-07-16T12:19:50.230Z,35.80
2018-07-16T12:22:18.662Z,36.30
2018-07-16T12:24:47.101Z,36.30
2018-07-16T12:27:15.540Z,37.00
2018-07-16T12:29:45.454Z,37.10
2018-07-16T12:32:16.151Z,36.50
2018-07-16T12:34:45.753Z,36.50
2018-07-16T12:37:15.064Z,36.80
2018-07-16T12:39:44.080Z,36.90
2018-07-16T12:42:12.524Z,36.90
2018-07-16T12:44:41.753Z,37.40
2018-07-16T12:47:10.208Z,37.50
2018-07-16T12:49:38.753Z,37.30
2018-07-16T12:52:07.251Z,37.60
2018-07-16T12:54:35.684Z,36.60
2018-07-16T12:57:04.177Z,36.60
2018-07-16T12:59:32.600Z,37.00
2018-07-16T13:02:01.112Z,37.80
2018-07-16T13:04:29.587Z,38.70
2018-07-16T13:06:58.054Z,39.40
2018-07-16T13:09:26.487Z,40.00
2018-07-16T13:11:54.914Z,40.80
2018-07-16T13:14:23.307Z,41.40
2018-07-16T13:16:51.796Z,41.90
2018-07-16T13:19:20.201Z,42.00
2018-07-16T13:21:48.703Z,42.10
2018-07-16T13:24:17.130Z,42.40
2018-07-16T13:26:45.722Z,42.70
2018-07-16T13:31:42.296Z,42.90
2018-07-16T13:34:11.019Z,43.00
2018-07-16T13:36:39.486Z,43.10
2018-07-16T13:39:10.053Z,43.30
2018-07-16T13:41:38.508Z,42.90
2018-07-16T13:44:07.299Z,42.40
2018-07-16T13:46:35.934Z,42.90
2018-07-16T13:49:04.380Z,43.40
2018-07-16T13:51:32.898Z,42.90
2018-07-16T13:54:01.782Z,43.30
2018-07-16T13:56:30.303Z,43.00
2018-07-16T13:58:58.740Z,43.20
2018-07-16T14:01:27.323Z,42.80
2018-07-16T14:03:55.767Z,43.00
2018-07-16T14:06:24.199Z,43.60
2018-07-16T14:08:52.715Z,43.60
2018-07-16T14:11:21.102Z,43.90
2018-07-16T14:13:49.656Z,42.90
2018-07-16T14:16:18.213Z,43.20
2018-07-16T14:18:46.728Z,43.50
2018-07-16T14:21:15.155Z,43.40
2018-07-16T14:23:43.615Z,43.20
2018-07-16T14:26:12.019Z,43.10
2018-07-16T14:28:40.498Z,43.00
2018-07-16T14:31:08.929Z,42.80
2018-07-16T14:33:37.378Z,42.70
2018-07-16T14:36:05.878Z,42.60
2018-07-16T14:38:34.326Z,43.00
2018-07-16T14:41:02.767Z,43.10
2018-07-16T14:43:31.278Z,43.00
2018-07-16T14:45:59.714Z,43.30
2018-07-16T14:48:28.133Z,43.60
2018-07-16T14:50:56.499Z,43.30
2018-07-16T14:53:25.015Z,42.90
2018-07-16T14:55:53.413Z,42.70
2018-07-16T14:58:21.857Z,42.40
2018-07-16T15:00:50.249Z,41.80
2018-07-16T15:03:18.876Z,41.10
2018-07-16T15:05:47.302Z,40.80
2018-07-16T15:08:18.587Z,40.90
2018-07-16T15:10:47.039Z,41.20
2018-07-16T15:13:15.495Z,41.60
2018-07-16T15:15:43.962Z,41.80
2018-07-16T15:18:14.022Z,41.80
2018-07-16T15:20:42.587Z,41.70
2018-07-16T15:23:10.854Z,41.20
2018-07-16T15:25:39.282Z,41.40
2018-07-16T15:28:07.766Z,41.80
2018-07-16T15:30:36.231Z,42.20
2018-07-16T15:33:04.934Z,43.00
2018-07-16T15:35:33.400Z,44.10
2018-07-16T15:38:01.809Z,43.80
2018-07-16T15:40:30.326Z,44.20
2018-07-16T15:42:59.129Z,44.50
2018-07-16T15:45:27.764Z,44.10
2018-07-16T15:47:56.440Z,44.20
2018-07-16T15:50:24.910Z,44.10
2018-07-16T15:52:53.354Z,44.50
2018-07-16T15:55:21.854Z,43.90
2018-07-16T15:57:50.283Z,43.50
2018-07-16T16:00:18.930Z,43.30
2018-07-16T16:02:47.408Z,43.50
2018-07-16T16:05:15.956Z,43.70
2018-07-16T16:07:44.363Z,44.30
2018-07-16T16:10:12.772Z,44.40
2018-07-16T16:12:41.196Z,44.40
2018-07-16T16:15:09.592Z,44.20
2018-07-16T16:17:37.996Z,44.00
2018-07-16T16:20:07.848Z,44.40
2018-07-16T16:22:36.661Z,45.10
2018-07-16T16:25:05.420Z,45.60
2018-07-16T16:27:33.867Z,45.90
2018-07-16T16:30:02.831Z,45.70
2018-07-16T16:32:32.357Z,45.00
2018-07-16T16:35:01.015Z,44.00
2018-07-16T16:37:29.458Z,43.20
2018-07-16T16:39:57.942Z,42.30
2018-07-16T16:42:39.355Z,41.60
2018-07-16T16:45:07.894Z,41.70
2018-07-16T16:47:36.409Z,41.40
2018-07-16T16:50:05.328Z,40.60
2018-07-16T16:52:33.821Z,40.40
2018-07-16T16:55:02.307Z,40.30
2018-07-16T16:57:30.730Z,40.30
2018-07-16T16:59:59.230Z,39.90
2018-07-16T17:02:27.685Z,39.00
2018-07-16T17:04:56.241Z,38.40
2018-07-16T17:07:24.636Z,37.60
2018-07-16T17:09:53.203Z,37.00
2018-07-16T17:12:21.682Z,37.00
2018-07-16T17:14:50.197Z,37.00
2018-07-16T17:17:18.652Z,37.40
2018-07-16T17:19:47.173Z,37.90
2018-07-16T17:22:15.709Z,38.10
2018-07-16T17:24:45.364Z,38.00
2018-07-16T17:27:13.772Z,38.30
2018-07-16T17:29:42.265Z,38.80
2018-07-16T17:32:10.815Z,38.90
2018-07-16T17:34:39.668Z,39.10
2018-07-16T17:37:08.186Z,39.50
2018-07-16T17:39:36.711Z,39.90
2018-07-16T17:42:05.188Z,40.40
2018-07-16T17:44:33.637Z,40.80
2018-07-16T17:47:02.144Z,41.10
2018-07-16T17:49:30.637Z,41.30
2018-07-16T17:51:59.129Z,41.30
2018-07-16T17:54:27.588Z,41.00
2018-07-16T17:56:56.030Z,40.50
2018-07-16T18:01:52.970Z,39.30
2018-07-16T18:04:21.450Z,39.10
2018-07-16T18:06:49.950Z,39.10
2018-07-16T18:09:18.347Z,39.00
2018-07-16T18:11:46.918Z,38.90
2018-07-16T18:14:15.372Z,38.30
2018-07-16T18:16:43.906Z,37.90
2018-07-16T18:19:12.309Z,37.70
2018-07-16T18:21:40.793Z,37.30
2018-07-16T18:24:09.282Z,36.70
2018-07-16T18:26:37.737Z,36.10
2018-07-16T18:29:06.522Z,35.50
2018-07-16T18:31:35.116Z,35.30
2018-07-16T18:34:03.891Z,35.10
2018-07-16T18:36:32.519Z,34.80
2018-07-16T18:39:01.065Z,34.70
2018-07-16T18:41:29.578Z,34.70
2018-07-16T18:46:26.903Z,34.40
2018-07-16T18:48:55.462Z,34.10
2018-07-16T18:51:23.998Z,33.70
2018-07-16T18:53:52.807Z,33.40
2018-07-16T18:56:21.284Z,33.00
2018-07-16T18:58:49.711Z,32.80
2018-07-16T19:01:18.280Z,32.50
2018-07-16T19:03:46.953Z,32.10
2018-07-16T19:06:15.729Z,31.80
2018-07-16T19:08:44.294Z,31.30
2018-07-16T19:11:12.761Z,30.80
2018-07-16T19:13:41.517Z,30.40
2018-07-16T19:16:09.981Z,29.90
2018-07-16T19:18:38.392Z,29.50
2018-07-16T19:21:06.851Z,29.00
2018-07-16T19:23:35.371Z,28.70
2018-07-16T19:26:03.856Z,28.40
2018-07-16T19:28:32.314Z,28.10
2018-07-16T19:31:00.833Z,27.80
2018-07-16T19:33:29.224Z,27.60
2018-07-16T19:35:57.811Z,27.30
2018-07-16T19:38:26.294Z,27.10
2018-07-16T19:40:54.795Z,26.90
2018-07-16T19:43:23.331Z,26.70
2018-07-16T19:45:51.747Z,26.50
2018-07-16T19:48:20.235Z,26.30
2018-07-16T19:50:50.823Z,26.00
2018-07-16T19:53:19.365Z,25.90
2018-07-16T19:55:47.977Z,25.70
2018-07-16T19:58:16.529Z,25.60
2018-07-16T20:00:45.154Z,25.50
2018-07-16T20:03:15.335Z,25.30
2018-07-16T20:05:43.960Z,25.20
2018-07-16T20:08:12.532Z,25.10
2018-07-16T20:10:40.919Z,25.00
2018-07-16T20:13:09.452Z,24.80
2018-07-16T20:15:38.051Z,24.80
2018-07-16T20:18:06.473Z,24.60
2018-07-16T20:20:44.003Z,24.50
2018-07-16T20:23:12.415Z,24.50
2018-07-16T20:25:40.958Z,24.40
2018-07-16T20:28:09.579Z,24.30
2018-07-16T20:30:38.043Z,24.20
2018-07-16T20:33:07.061Z,24.20
2018-07-16T20:35:35.526Z,24.00
2018-07-16T20:38:04.014Z,23.90
2018-07-16T20:40:32.437Z,23.80
2018-07-16T20:43:00.911Z,23.70
2018-07-16T20:45:29.395Z,23.60
2018-07-16T20:47:58.114Z,23.60
2018-07-16T20:50:26.992Z,23.50
2018-07-16T20:52:55.509Z,23.50
2018-07-16T20:55:24.045Z,23.40
2018-07-16T20:57:52.544Z,23.40
2018-07-16T21:00:21.294Z,23.30
2018-07-16T21:02:49.773Z,23.20
2018-07-16T21:05:18.206Z,23.20
2018-07-16T21:07:46.679Z,23.20
2018-07-16T21:10:15.170Z,23.10
2018-07-16T21:12:43.865Z,23.10
2018-07-16T21:15:12.345Z,23.00
2018-07-16T21:17:41.065Z,22.90
2018-07-16T21:20:11.215Z,22.90
2018-07-16T21:22:40.842Z,22.80
2018-07-16T21:25:10.318Z,22.80
2018-07-16T21:27:38.764Z,22.80
2018-07-16T21:30:07.331Z,22.80
2018-07-16T21:32:35.718Z,22.70
2018-07-16T21:35:04.368Z,22.80
2018-07-16T21:37:33.052Z,22.80
2018-07-16T21:40:01.543Z,22.80
2018-07-16T21:42:29.950Z,22.80
2018-07-16T21:44:58.413Z,22.80
2018-07-16T21:47:26.953Z,22.80
2018-07-16T21:49:55.403Z,22.80
2018-07-16T21:52:23.882Z,22.80
2018-07-16T21:54:52.305Z,22.70
2018-07-16T21:57:20.718Z,22.70
2018-07-16T21:59:49.138Z,22.60
2018-07-16T22:02:17.567Z,22.50
2018-07-16T22:04:45.987Z,22.50
2018-07-16T22:07:14.368Z,22.40
2018-07-16T22:09:42.902Z,22.40
2018-07-16T22:12:11.311Z,22.40
2018-07-16T22:14:39.766Z,22.30
2018-07-16T22:17:08.345Z,22.30
2018-07-16T22:19:36.803Z,22.20
2018-07-16T22:22:05.247Z,22.20
2018-07-16T22:24:33.818Z,22.10
2018-07-16T22:27:02.268Z,22.00
2018-07-16T22:29:30.726Z,21.90
2018-07-16T22:31:59.171Z,21.90
2018-07-16T22:34:27.631Z,21.80
2018-07-16T22:36:56.089Z,22.00
2018-07-16T22:39:24.520Z,22.20
2018-07-16T22:41:52.975Z,22.30
2018-07-16T22:44:21.395Z,22.40
2018-07-16T22:46:50.457Z,22.50
2018-07-16T22:49:18.902Z,22.60
2018-07-16T22:51:47.305Z,22.70
2018-07-16T22:54:15.704Z,22.70
2018-07-16T22:56:44.123Z,22.80
2018-07-16T22:59:12.533Z,22.80
2018-07-16T23:01:40.941Z,22.80
2018-07-16T23:04:09.354Z,22.90
2018-07-16T23:06:37.842Z,22.90
2018-07-16T23:09:13.254Z,22.90
2018-07-16T23:11:41.685Z,22.90
2018-07-16T23:14:10.139Z,22.90
2018-07-16T23:16:38.536Z,23.00
2018-07-16T23:19:07.044Z,23.00
2018-07-16T23:21:35.538Z,23.00
2018-07-16T23:24:04.129Z,23.00
2018-07-16T23:26:32.521Z,23.10
2018-07-16T23:29:00.983Z,23.20
2018-07-16T23:33:57.492Z,23.20
2018-07-16T23:36:25.928Z,23.30
2018-07-16T23:38:54.322Z,23.20
2018-07-16T23:41:22.737Z,23.40
2018-07-16T23:43:51.126Z,23.40
2018-07-16T23:46:19.538Z,23.30
2018-07-16T23:48:47.924Z,23.30
2018-07-16T23:51:16.345Z,23.20
2018-07-16T23:53:44.770Z,23.30
2018-07-16T23:56:20.053Z,23.30
2018-07-16T23:58:48.450Z,23.20
